createdAt,value
2019-06-07T00:02:05.954Z,16.80
2019-06-07T00:04:33.677Z,16.80
2019-06-07T00:07:02.048Z,16.80
2019-06-07T00:09:29.819Z,16.80
2019-06-07T00:11:57.307Z,16.80
2019-06-07T00:14:25.960Z,16.70
2019-06-07T00:16:53.420Z,16.70
2019-06-07T00:19:21.201Z,16.70
2019-06-07T00:24:45.321Z,16.70
2019-06-07T00:27:12.970Z,16.50
2019-06-07T00:29:40.647Z,16.60
2019-06-07T00:32:09.277Z,16.60
2019-06-07T00:34:36.748Z,16.60
2019-06-07T00:37:04.286Z,16.60
2019-06-07T00:39:31.618Z,16.70
2019-06-07T00:42:02.164Z,16.70
2019-06-07T00:44:29.738Z,16.70
2019-06-07T00:46:57.152Z,16.70
2019-06-07T00:49:38.315Z,16.80
2019-06-07T00:51:54.090Z,16.90
2019-06-07T00:54:24.069Z,16.90
2019-06-07T00:56:50.930Z,17.00
2019-06-07T00:59:21.190Z,16.90
2019-06-07T01:01:47.670Z,17.00
2019-06-07T01:04:17.754Z,17.00
2019-06-07T01:06:44.180Z,17.00
2019-06-07T01:09:12.821Z,17.10
2019-06-07T01:11:41.647Z,17.10
2019-06-07T01:14:10.374Z,17.10
2019-06-07T01:16:56.290Z,17.10
2019-06-07T01:19:07.779Z,17.10
2019-06-07T01:21:35.820Z,17.10
2019-06-07T01:24:11.823Z,17.20
2019-06-07T01:26:32.979Z,17.10
2019-06-07T01:29:00.580Z,17.20
2019-06-07T01:31:31.318Z,17.20
2019-06-07T01:33:57.429Z,17.20
2019-06-07T01:36:29.141Z,17.20
2019-06-07T01:38:54.055Z,17.10
2019-06-07T01:41:25.409Z,17.20
2019-06-07T01:43:51.055Z,17.20
2019-06-07T01:46:20.755Z,17.10
2019-06-07T01:48:49.872Z,17.10
2019-06-07T01:51:18.947Z,17.10
2019-06-07T01:53:46.753Z,17.10
2019-06-07T01:56:14.268Z,17.10
2019-06-07T01:58:41.598Z,17.10
2019-06-07T02:01:09.108Z,17.10
2019-06-07T02:03:36.495Z,17.10
2019-06-07T02:06:04.092Z,17.10
2019-06-07T02:08:34.298Z,17.10
2019-06-07T02:11:00.649Z,17.10
2019-06-07T02:13:30.601Z,17.20
2019-06-07T02:15:57.301Z,17.20
2019-06-07T02:18:28.198Z,17.20
2019-06-07T02:20:53.853Z,17.20
2019-06-07T02:23:23.236Z,17.20
2019-06-07T02:25:50.805Z,17.20
2019-06-07T02:28:44.428Z,17.30
2019-06-07T02:30:59.615Z,17.20
2019-06-07T02:33:17.083Z,17.20
2019-06-07T02:35:44.411Z,17.10
2019-06-07T02:38:11.832Z,17.10
2019-06-07T02:40:39.247Z,17.10
2019-06-07T02:43:06.804Z,17.00
2019-06-07T02:45:42.531Z,17.00
2019-06-07T02:48:03.918Z,16.90
2019-06-07T02:50:36.465Z,16.80
2019-06-07T02:53:00.954Z,16.80
2019-06-07T02:55:31.266Z,16.70
2019-06-07T02:57:57.668Z,16.80
2019-06-07T03:01:04.097Z,16.60
2019-06-07T03:03:15.986Z,16.60
2019-06-07T03:05:44.635Z,16.50
2019-06-07T03:08:14.204Z,16.50
2019-06-07T03:10:44.533Z,16.50
2019-06-07T03:13:16.955Z,16.50
2019-06-07T03:15:50.269Z,16.60
2019-06-07T03:18:36.418Z,16.40
2019-06-07T03:21:06.071Z,16.40
2019-06-07T03:23:35.764Z,16.30
2019-06-07T03:26:03.926Z,16.30
2019-06-07T03:28:35.525Z,16.30
2019-06-07T03:31:03.115Z,16.30
2019-06-07T03:33:33.383Z,16.30
2019-06-07T03:36:13.024Z,16.30
2019-06-07T03:38:32.055Z,16.30
2019-06-07T03:40:58.541Z,16.20
2019-06-07T03:43:27.349Z,16.20
2019-06-07T03:45:54.867Z,16.10
2019-06-07T03:48:22.228Z,16.20
2019-06-07T03:51:03.878Z,16.30
2019-06-07T03:53:18.969Z,16.20
2019-06-07T03:55:46.477Z,16.30
2019-06-07T03:58:31.830Z,16.30
2019-06-07T04:00:43.620Z,16.40
2019-06-07T04:03:30.756Z,16.70
2019-06-07T04:05:43.306Z,16.50
2019-06-07T04:08:09.597Z,16.60
2019-06-07T04:10:55.623Z,16.60
2019-06-07T04:13:06.332Z,16.70
2019-06-07T04:15:37.786Z,16.80
2019-06-07T04:18:04.120Z,16.90
2019-06-07T04:20:34.079Z,17.00
2019-06-07T04:23:01.183Z,17.10
2019-06-07T04:25:29.007Z,17.20
2019-06-07T04:27:56.944Z,17.20
2019-06-07T04:30:41.878Z,17.30
2019-06-07T04:33:10.194Z,17.50
2019-06-07T04:35:40.023Z,17.50
2019-06-07T04:38:08.303Z,17.60
2019-06-07T04:40:38.648Z,17.70
2019-06-07T04:43:05.625Z,17.70
2019-06-07T04:45:45.158Z,17.80
2019-06-07T04:48:06.243Z,17.90
2019-06-07T04:50:37.810Z,18.00
2019-06-07T04:53:04.567Z,18.10
2019-06-07T04:55:33.909Z,18.30
2019-06-07T04:58:01.414Z,18.50
2019-06-07T05:03:00.261Z,19.00
2019-06-07T05:05:29.279Z,19.20
2019-06-07T05:07:57.049Z,19.50
2019-06-07T05:10:24.814Z,19.80
2019-06-07T05:12:52.152Z,20.20
2019-06-07T05:15:19.694Z,20.50
2019-06-07T05:17:47.126Z,20.90
2019-06-07T05:20:16.045Z,21.20
2019-06-07T05:22:45.277Z,21.40
2019-06-07T05:25:16.729Z,21.70
2019-06-07T05:27:46.923Z,21.90
2019-06-07T05:30:59.887Z,22.10
2019-06-07T05:32:51.543Z,22.30
2019-06-07T05:35:19.168Z,22.60
2019-06-07T05:37:46.707Z,22.80
2019-06-07T05:40:21.634Z,23.10
2019-06-07T05:42:49.848Z,23.40
2019-06-07T05:45:29.780Z,23.60
2019-06-07T05:47:57.378Z,23.80
2019-06-07T05:50:39.207Z,24.10
2019-06-07T05:52:54.642Z,24.30
2019-06-07T05:55:22.526Z,24.50
2019-06-07T05:57:51.220Z,24.60
2019-06-07T06:00:19.783Z,24.70
2019-06-07T06:03:04.169Z,24.80
2019-06-07T06:05:32.568Z,24.90
2019-06-07T06:07:50.529Z,25.10
2019-06-07T06:10:15.406Z,25.20
2019-06-07T06:12:49.870Z,25.20
2019-06-07T06:15:13.086Z,25.20
2019-06-07T06:17:41.380Z,25.30
2019-06-07T06:20:10.434Z,25.30
2019-06-07T06:22:41.231Z,25.40
2019-06-07T06:30:09.259Z,25.70
2019-06-07T06:32:42.917Z,25.70
2019-06-07T06:35:07.624Z,25.80
2019-06-07T06:37:35.287Z,26.00
2019-06-07T06:40:04.048Z,26.20
2019-06-07T06:42:31.423Z,26.30
2019-06-07T06:44:58.897Z,26.50
2019-06-07T06:47:26.744Z,26.70
2019-06-07T06:49:54.631Z,26.80
2019-06-07T06:52:23.003Z,27.10
2019-06-07T06:54:59.267Z,27.00
2019-06-07T06:57:20.386Z,27.10
2019-06-07T06:59:51.106Z,27.30
2019-06-07T07:02:17.640Z,27.40
2019-06-07T07:04:47.952Z,27.60
2019-06-07T07:07:15.697Z,27.70
2019-06-07T07:09:47.150Z,27.70
2019-06-07T07:12:14.872Z,27.80
2019-06-07T07:14:44.368Z,27.80
2019-06-07T07:17:11.604Z,27.90
2019-06-07T07:19:43.074Z,28.00
2019-06-07T07:22:11.709Z,28.20
2019-06-07T07:24:39.191Z,28.30
2019-06-07T07:27:06.656Z,28.40
2019-06-07T07:29:34.125Z,28.50
2019-06-07T07:32:01.462Z,28.60
2019-06-07T07:34:35.290Z,28.80
2019-06-07T07:36:59.948Z,28.90
2019-06-07T07:39:27.679Z,29.00
2019-06-07T07:42:17.892Z,29.20
2019-06-07T07:44:24.368Z,29.50
2019-06-07T07:46:54.090Z,29.60
2019-06-07T07:49:21.610Z,29.70
2019-06-07T07:51:52.914Z,29.60
2019-06-07T07:54:18.648Z,29.60
2019-06-07T07:56:47.120Z,29.90
2019-06-07T07:59:15.254Z,30.00
2019-06-07T08:01:42.686Z,30.10
2019-06-07T08:04:10.163Z,30.30
2019-06-07T08:06:37.619Z,30.50
2019-06-07T08:09:06.820Z,30.60
2019-06-07T08:11:34.455Z,30.80
2019-06-07T08:14:02.042Z,31.20
2019-06-07T08:16:29.828Z,31.50
2019-06-07T08:19:03.204Z,31.60
2019-06-07T08:21:27.364Z,31.80
2019-06-07T08:24:00.596Z,31.90
2019-06-07T08:26:27.229Z,32.00
2019-06-07T08:28:58.865Z,32.00
2019-06-07T08:31:24.454Z,32.00
2019-06-07T08:36:02.471Z,31.90
2019-06-07T08:38:14.966Z,31.90
2019-06-07T08:40:15.123Z,31.90
2019-06-07T08:43:02.817Z,32.20
2019-06-07T08:45:14.735Z,32.50
2019-06-07T08:47:42.449Z,32.60
2019-06-07T08:50:10.819Z,32.70
2019-06-07T08:52:38.598Z,32.90
2019-06-07T08:55:06.613Z,33.30
2019-06-07T08:57:34.341Z,33.60
2019-06-07T09:00:16.011Z,34.10
2019-06-07T09:02:31.538Z,34.80
2019-06-07T09:05:03.226Z,35.00
2019-06-07T09:07:28.180Z,35.10
2019-06-07T09:10:03.596Z,35.80
2019-06-07T09:12:25.017Z,37.00
2019-06-07T09:15:09.319Z,37.60
2019-06-07T09:17:22.147Z,37.50
2019-06-07T09:19:49.781Z,37.40
2019-06-07T09:22:17.109Z,37.40
2019-06-07T09:24:44.583Z,38.20
2019-06-07T09:27:12.815Z,38.50
2019-06-07T09:29:40.329Z,38.60
2019-06-07T09:32:14.833Z,38.80
2019-06-07T09:34:38.090Z,39.00
2019-06-07T09:37:54.485Z,38.80
2019-06-07T09:39:35.197Z,38.40
2019-06-07T09:42:08.368Z,37.90
2019-06-07T09:44:32.111Z,37.40
2019-06-07T09:47:20.163Z,37.00
2019-06-07T09:49:32.880Z,36.70
2019-06-07T09:52:02.687Z,36.30
2019-06-07T09:55:04.090Z,35.80
2019-06-07T09:57:00.352Z,35.40
2019-06-07T09:59:28.280Z,35.20
2019-06-07T10:01:59.158Z,34.80
2019-06-07T10:04:31.215Z,34.80
2019-06-07T10:06:55.516Z,34.70
2019-06-07T10:10:08.699Z,34.50
2019-06-07T10:11:52.720Z,34.40
2019-06-07T10:14:20.369Z,34.20
2019-06-07T10:16:48.197Z,34.30
2019-06-07T10:19:16.855Z,34.50
2019-06-07T10:21:44.742Z,34.80
2019-06-07T10:24:12.252Z,34.90
2019-06-07T10:26:39.771Z,35.00
2019-06-07T10:29:09.061Z,35.10
2019-06-07T10:31:36.769Z,35.00
2019-06-07T10:34:06.476Z,35.00
2019-06-07T10:36:34.535Z,34.90
2019-06-07T10:39:03.077Z,35.00
2019-06-07T10:41:32.279Z,35.30
2019-06-07T10:44:00.948Z,35.50
2019-06-07T10:46:29.063Z,35.80
2019-06-07T10:48:56.616Z,35.90
2019-06-07T10:51:25.094Z,35.90
2019-06-07T10:53:52.963Z,35.80
2019-06-07T10:56:22.020Z,36.20
2019-06-07T10:58:50.091Z,36.30
2019-06-07T11:01:17.783Z,36.40
2019-06-07T11:03:45.712Z,36.70
2019-06-07T11:06:14.269Z,37.20
2019-06-07T11:08:47.331Z,37.20
2019-06-07T11:11:15.280Z,37.20
2019-06-07T11:14:10.535Z,37.40
2019-06-07T11:16:38.241Z,37.60
2019-06-07T11:19:06.146Z,37.80
2019-06-07T11:21:33.880Z,37.80
2019-06-07T11:24:01.704Z,37.90
2019-06-07T11:26:29.690Z,38.10
2019-06-07T11:28:57.977Z,38.30
2019-06-07T11:31:26.681Z,38.40
2019-06-07T11:33:55.615Z,38.80
2019-06-07T11:36:24.589Z,39.40
2019-06-07T11:38:52.638Z,39.80
2019-06-07T11:41:20.219Z,40.00
2019-06-07T11:43:48.106Z,40.20
2019-06-07T11:46:15.742Z,40.20
2019-06-07T11:48:43.745Z,40.00
2019-06-07T11:51:12.709Z,39.80
2019-06-07T11:53:41.830Z,39.50
2019-06-07T11:56:10.373Z,39.40
2019-06-07T11:58:40.694Z,39.30
2019-06-07T12:01:09.591Z,39.10
2019-06-07T12:03:37.405Z,38.90
2019-06-07T12:06:05.943Z,38.40
2019-06-07T12:08:35.659Z,38.10
2019-06-07T12:11:04.763Z,37.70
2019-06-07T12:13:33.553Z,37.50
2019-06-07T12:16:08.980Z,37.20
2019-06-07T12:18:37.515Z,37.00
2019-06-07T12:21:18.033Z,36.60
2019-06-07T12:23:46.438Z,36.40
2019-06-07T12:26:18.610Z,36.10
2019-06-07T12:28:47.280Z,35.90
2019-06-07T12:31:15.147Z,35.40
2019-06-07T12:33:42.893Z,34.80
2019-06-07T12:36:13.481Z,34.40
2019-06-07T12:38:59.558Z,34.20
2019-06-07T12:41:39.487Z,34.10
2019-06-07T12:44:09.283Z,33.90
2019-06-07T12:46:38.011Z,33.90
2019-06-07T12:49:07.740Z,33.70
2019-06-07T12:51:36.504Z,33.50
2019-06-07T12:54:04.560Z,33.70
2019-06-07T12:56:32.592Z,33.70
2019-06-07T13:00:07.332Z,33.90
2019-06-07T13:02:48.637Z,34.00
2019-06-07T13:05:19.934Z,34.30
2019-06-07T13:07:48.023Z,34.20
2019-06-07T13:10:17.939Z,34.20
2019-06-07T13:12:46.054Z,34.30
2019-06-07T13:15:16.715Z,34.40
2019-06-07T13:17:43.278Z,34.40
2019-06-07T13:20:11.676Z,34.40
2019-06-07T13:22:39.362Z,34.40
2019-06-07T13:25:08.105Z,34.40
2019-06-07T13:27:35.948Z,34.50
2019-06-07T13:30:09.871Z,34.50
2019-06-07T13:32:36.690Z,34.50
2019-06-07T13:35:05.511Z,34.50
2019-06-07T13:37:33.608Z,34.40
2019-06-07T13:40:01.624Z,34.10
2019-06-07T13:42:29.067Z,33.90
2019-06-07T13:44:56.970Z,33.70
2019-06-07T13:47:27.544Z,33.40
2019-06-07T13:49:55.556Z,33.00
2019-06-07T13:52:23.718Z,32.60
2019-06-07T13:54:51.363Z,32.30
2019-06-07T13:57:19.965Z,32.30
2019-06-07T13:59:48.623Z,32.30
2019-06-07T14:02:16.073Z,32.30
2019-06-07T14:04:44.877Z,32.40
2019-06-07T14:07:13.688Z,32.50
2019-06-07T14:09:44.152Z,32.60
2019-06-07T14:12:11.720Z,32.70
2019-06-07T14:14:46.144Z,32.60
2019-06-07T14:17:17.098Z,32.50
2019-06-07T14:19:44.516Z,32.40
2019-06-07T14:22:11.997Z,32.40
2019-06-07T14:24:39.361Z,32.50
2019-06-07T14:27:06.895Z,32.40
2019-06-07T14:29:36.353Z,32.30
2019-06-07T14:32:05.413Z,32.30
2019-06-07T14:34:33.145Z,32.30
2019-06-07T14:37:01.217Z,32.40
2019-06-07T14:39:31.611Z,32.60
2019-06-07T14:42:09.212Z,32.70
2019-06-07T14:44:29.811Z,32.80
2019-06-07T14:46:57.693Z,32.70
2019-06-07T14:49:26.432Z,32.70
2019-06-07T14:51:54.093Z,32.50
2019-06-07T14:54:21.875Z,32.50
2019-06-07T14:56:49.536Z,32.40
2019-06-07T14:59:16.946Z,32.40
2019-06-07T15:01:44.650Z,32.40
2019-06-07T15:04:12.312Z,32.40
2019-06-07T15:06:39.768Z,32.30
2019-06-07T15:09:08.025Z,32.30
2019-06-07T15:11:35.581Z,32.20
2019-06-07T15:14:03.252Z,32.00
2019-06-07T15:16:32.009Z,32.00
2019-06-07T15:18:59.952Z,31.90
2019-06-07T15:21:28.653Z,31.90
2019-06-07T15:23:58.213Z,31.80
2019-06-07T15:26:25.880Z,31.70
2019-06-07T15:28:53.517Z,31.70
2019-06-07T15:31:22.203Z,31.60
2019-06-07T15:33:49.762Z,31.50
2019-06-07T15:36:17.117Z,31.40
2019-06-07T15:38:44.753Z,31.40
2019-06-07T15:41:12.442Z,31.30
2019-06-07T15:43:39.932Z,31.30
2019-06-07T15:46:07.301Z,31.10
2019-06-07T15:48:36.095Z,31.10
2019-06-07T15:51:04.161Z,31.20
2019-06-07T15:53:34.054Z,31.10
2019-06-07T15:56:01.126Z,31.10
2019-06-07T15:58:33.082Z,31.00
2019-06-07T16:01:01.036Z,30.90
2019-06-07T16:03:28.407Z,31.00
2019-06-07T16:05:55.914Z,31.10
2019-06-07T16:08:23.486Z,31.00
2019-06-07T16:10:51.053Z,30.90
2019-06-07T16:13:18.519Z,30.90
2019-06-07T16:15:45.944Z,30.90
2019-06-07T16:18:13.525Z,30.90
2019-06-07T16:20:41.487Z,30.80
2019-06-07T16:23:08.993Z,30.70
2019-06-07T16:25:37.863Z,30.60
2019-06-07T16:28:05.499Z,30.60
2019-06-07T16:30:32.891Z,30.50
2019-06-07T16:33:00.530Z,30.60
2019-06-07T16:35:27.988Z,30.60
2019-06-07T16:37:55.814Z,30.60
2019-06-07T16:40:23.700Z,30.60
2019-06-07T16:42:51.333Z,30.60
2019-06-07T16:45:19.969Z,30.60
2019-06-07T16:47:49.344Z,30.60
2019-06-07T16:50:17.797Z,30.70
2019-06-07T16:52:46.548Z,30.70
2019-06-07T16:55:15.223Z,30.80
2019-06-07T16:57:45.989Z,30.70
2019-06-07T17:00:18.013Z,30.60
2019-06-07T17:02:47.411Z,30.50
2019-06-07T17:05:15.795Z,30.40
2019-06-07T17:07:44.817Z,30.30
2019-06-07T17:10:13.394Z,30.10
2019-06-07T17:12:42.648Z,29.90
2019-06-07T17:15:13.502Z,29.80
2019-06-07T17:17:41.175Z,29.50
2019-06-07T17:20:09.646Z,29.30
2019-06-07T17:22:38.953Z,29.10
2019-06-07T17:25:08.369Z,28.90
2019-06-07T17:27:35.778Z,28.70
2019-06-07T17:30:06.181Z,28.50
2019-06-07T17:32:47.740Z,28.30
2019-06-07T17:35:03.933Z,28.10
2019-06-07T17:37:31.434Z,27.90
2019-06-07T17:39:58.790Z,27.70
2019-06-07T17:42:26.491Z,27.60
2019-06-07T17:44:53.873Z,27.40
2019-06-07T17:47:21.365Z,27.20
2019-06-07T17:49:49.957Z,27.20
2019-06-07T17:52:17.724Z,27.10
2019-06-07T17:54:45.911Z,27.00
2019-06-07T17:57:13.615Z,26.90
2019-06-07T17:59:42.371Z,26.80
2019-06-07T18:02:15.027Z,26.70
2019-06-07T18:04:41.260Z,26.60
2019-06-07T18:07:09.004Z,26.50
2019-06-07T18:09:38.307Z,26.40
2019-06-07T18:12:05.880Z,26.20
2019-06-07T18:14:33.419Z,26.10
2019-06-07T18:17:00.918Z,26.10
2019-06-07T18:19:28.266Z,25.90
2019-06-07T18:21:58.809Z,25.90
2019-06-07T18:24:25.231Z,25.80
2019-06-07T18:26:53.041Z,25.50
2019-06-07T18:29:20.622Z,25.40
2019-06-07T18:31:48.728Z,25.30
2019-06-07T18:34:16.186Z,25.10
2019-06-07T18:36:44.451Z,24.90
2019-06-07T18:39:13.662Z,24.80
2019-06-07T18:41:41.168Z,24.70
2019-06-07T18:44:20.820Z,24.50
2019-06-07T18:46:42.540Z,24.40
2019-06-07T18:49:10.062Z,24.20
2019-06-07T18:51:37.604Z,24.10
2019-06-07T18:54:05.469Z,23.90
2019-06-07T18:56:33.355Z,23.70
2019-06-07T18:59:00.853Z,23.60
2019-06-07T19:01:28.471Z,23.40
2019-06-07T19:03:56.232Z,23.40
2019-06-07T19:06:25.002Z,23.30
2019-06-07T19:08:55.551Z,23.20
2019-06-07T19:11:22.601Z,23.20
2019-06-07T19:13:51.287Z,23.00
2019-06-07T19:16:19.182Z,23.00
2019-06-07T19:18:46.624Z,22.90
2019-06-07T19:21:14.251Z,22.90
2019-06-07T19:23:41.755Z,22.80
2019-06-07T19:26:10.276Z,22.80
2019-06-07T19:28:37.658Z,22.70
2019-06-07T19:31:05.315Z,22.70
2019-06-07T19:33:32.926Z,22.60
2019-06-07T19:36:01.562Z,22.60
2019-06-07T19:38:29.429Z,22.50
2019-06-07T19:40:57.921Z,22.50
2019-06-07T19:43:25.575Z,22.50
2019-06-07T19:45:54.077Z,22.40
2019-06-07T19:48:21.514Z,22.40
2019-06-07T19:50:48.967Z,22.40
2019-06-07T19:53:16.319Z,22.40
2019-06-07T19:55:43.746Z,22.40
2019-06-07T19:58:12.380Z,22.40
2019-06-07T20:00:40.186Z,22.50
2019-06-07T20:03:08.200Z,22.50
2019-06-07T20:05:36.410Z,22.40
2019-06-07T20:08:04.859Z,22.50
2019-06-07T20:10:33.038Z,22.50
2019-06-07T20:13:02.943Z,22.50
2019-06-07T20:15:30.687Z,22.60
2019-06-07T20:17:59.251Z,22.60
2019-06-07T20:20:30.004Z,22.60
2019-06-07T20:22:57.101Z,22.60
2019-06-07T20:25:24.698Z,22.50
2019-06-07T20:27:53.042Z,22.50
2019-06-07T20:30:20.606Z,22.50
2019-06-07T20:32:48.066Z,22.40
2019-06-07T20:35:15.514Z,22.40
2019-06-07T20:37:45.082Z,22.30
2019-06-07T20:40:23.623Z,22.20
2019-06-07T20:42:42.168Z,22.10
2019-06-07T20:45:10.022Z,22.00
2019-06-07T20:47:38.223Z,21.70
2019-06-07T20:50:06.568Z,21.80
2019-06-07T20:52:34.083Z,21.70
2019-06-07T20:55:03.073Z,21.60
2019-06-07T20:57:30.606Z,21.50
2019-06-07T20:59:58.794Z,21.40
2019-06-07T21:02:26.595Z,21.30
2019-06-07T21:04:54.072Z,21.20
2019-06-07T21:07:21.505Z,21.20
2019-06-07T21:09:49.476Z,21.00
2019-06-07T21:12:16.832Z,20.90
2019-06-07T21:14:44.196Z,20.80
2019-06-07T21:17:11.914Z,20.70
2019-06-07T21:19:39.423Z,20.60
2019-06-07T21:22:06.894Z,20.50
2019-06-07T21:24:34.407Z,20.50
2019-06-07T21:27:03.372Z,20.40
2019-06-07T21:29:31.234Z,20.30
2019-06-07T21:31:58.827Z,20.20
2019-06-07T21:34:26.421Z,20.10
2019-06-07T21:36:54.891Z,20.00
2019-06-07T21:39:22.841Z,19.90
2019-06-07T21:41:51.076Z,19.90
2019-06-07T21:44:18.561Z,19.80
2019-06-07T21:46:46.190Z,19.80
2019-06-07T21:49:13.741Z,19.70
2019-06-07T21:51:41.074Z,19.70
2019-06-07T21:54:10.095Z,19.60
2019-06-07T21:56:37.836Z,19.60
2019-06-07T21:59:05.327Z,19.50
2019-06-07T22:01:32.907Z,19.50
2019-06-07T22:04:00.367Z,19.50
2019-06-07T22:06:27.837Z,19.50
2019-06-07T22:08:55.975Z,19.40
2019-06-07T22:11:23.702Z,19.30
2019-06-07T22:13:51.221Z,19.30
2019-06-07T22:16:28.535Z,19.30
2019-06-07T22:18:48.049Z,19.20
2019-06-07T22:21:15.477Z,19.10
2019-06-07T22:23:43.766Z,19.00
2019-06-07T22:26:38.836Z,18.90
2019-06-07T22:29:06.414Z,18.90
2019-06-07T22:31:33.914Z,18.80
2019-06-07T22:34:01.295Z,18.80
2019-06-07T22:36:28.649Z,18.70
2019-06-07T22:38:56.036Z,18.70
2019-06-07T22:41:23.408Z,18.60
2019-06-07T22:43:50.874Z,18.60
2019-06-07T22:46:36.529Z,18.60
2019-06-07T22:48:50.983Z,18.50
2019-06-07T22:51:18.497Z,18.50
2019-06-07T22:53:45.956Z,18.50
2019-06-07T22:56:21.986Z,18.40
2019-06-07T22:58:49.429Z,18.40
2019-06-07T23:01:17.149Z,18.30
2019-06-07T23:03:44.759Z,18.30
2019-06-07T23:06:12.586Z,18.20
2019-06-07T23:08:40.091Z,18.20
2019-06-07T23:11:07.453Z,18.20
2019-06-07T23:13:34.968Z,18.10
2019-06-07T23:16:02.486Z,18.10
2019-06-07T23:18:29.947Z,18.10
2019-06-07T23:20:57.367Z,18.10
2019-06-07T23:23:24.696Z,18.00
2019-06-07T23:25:52.041Z,18.00
2019-06-07T23:28:20.667Z,17.90
2019-06-07T23:30:48.068Z,17.90
2019-06-07T23:33:16.745Z,17.90
2019-06-07T23:35:44.240Z,17.90
2019-06-07T23:38:12.993Z,17.80
2019-06-07T23:40:40.605Z,17.80
2019-06-07T23:43:08.961Z,17.70
2019-06-07T23:45:36.438Z,17.70
2019-06-07T23:48:03.903Z,17.60
2019-06-07T23:50:31.335Z,17.50
2019-06-07T23:52:58.820Z,17.50
2019-06-07T23:55:26.197Z,17.50
2019-06-07T23:57:53.625Z,17.40
